sensor_id;sensor_type;location;lat;lon;timestamp;P1;durP1;ratioP1;P2;durP2;ratioP2
31716;SDS011;18301;51.076;17.046;2023-08-06T00:01:44;7.00;;;5.65;;
31716;SDS011;18301;51.076;17.046;2023-08-06T00:06:45;5.85;;;5.03;;
31716;SDS011;18301;51.076;17.046;2023-08-06T00:11:47;3.70;;;3.30;;
31716;SDS011;18301;51.076;17.046;2023-08-06T00:16:49;4.07;;;3.13;;
31716;SDS011;18301;51.076;17.046;2023-08-06T00:21:50;4.03;;;3.55;;
31716;SDS011;18301;51.076;17.046;2023-08-06T00:26:52;4.05;;;3.65;;
31716;SDS011;18301;51.076;17.046;2023-08-06T00:31:53;5.47;;;3.90;;
31716;SDS011;18301;51.076;17.046;2023-08-06T00:36:55;4.32;;;3.78;;
31716;SDS011;18301;51.076;17.046;2023-08-06T00:41:57;6.65;;;4.68;;
31716;SDS011;18301;51.076;17.046;2023-08-06T00:46:59;4.40;;;4.00;;
31716;SDS011;18301;51.076;17.046;2023-08-06T00:52:01;3.30;;;2.45;;
31716;SDS011;18301;51.076;17.046;2023-08-06T00:57:04;2.00;;;1.80;;
31716;SDS011;18301;51.076;17.046;2023-08-06T01:02:09;1.77;;;1.67;;
31716;SDS011;18301;51.076;17.046;2023-08-06T01:13:00;1.33;;;1.23;;
31716;SDS011;18301;51.076;17.046;2023-08-06T01:18:06;1.45;;;1.35;;
31716;SDS011;18301;51.076;17.046;2023-08-06T01:23:08;1.85;;;1.30;;
31716;SDS011;18301;51.076;17.046;2023-08-06T01:34:01;1.23;;;1.13;;
31716;SDS011;18301;51.076;17.046;2023-08-06T01:39:06;2.13;;;0.90;;
31716;SDS011;18301;51.076;17.046;2023-08-06T01:44:07;1.23;;;1.02;;
31716;SDS011;18301;51.076;17.046;2023-08-06T01:49:09;2.63;;;1.90;;
31716;SDS011;18301;51.076;17.046;2023-08-06T01:54:10;4.78;;;4.32;;
31716;SDS011;18301;51.076;17.046;2023-08-06T01:59:12;4.43;;;3.53;;
31716;SDS011;18301;51.076;17.046;2023-08-06T02:04:13;1.58;;;1.48;;
31716;SDS011;18301;51.076;17.046;2023-08-06T02:09:15;2.17;;;0.93;;
31716;SDS011;18301;51.076;17.046;2023-08-06T02:14:16;1.10;;;0.85;;
31716;SDS011;18301;51.076;17.046;2023-08-06T02:19:17;1.00;;;0.90;;
31716;SDS011;18301;51.076;17.046;2023-08-06T02:24:19;0.70;;;0.70;;
31716;SDS011;18301;51.076;17.046;2023-08-06T02:29:20;1.10;;;0.70;;
31716;SDS011;18301;51.076;17.046;2023-08-06T02:34:22;0.77;;;0.60;;
31716;SDS011;18301;51.076;17.046;2023-08-06T02:39:23;2.10;;;0.55;;
31716;SDS011;18301;51.076;17.046;2023-08-06T02:44:28;0.50;;;0.50;;
31716;SDS011;18301;51.076;17.046;2023-08-06T02:49:29;0.40;;;0.40;;
31716;SDS011;18301;51.076;17.046;2023-08-06T02:54:31;0.50;;;0.50;;
31716;SDS011;18301;51.076;17.046;2023-08-06T02:59:32;0.40;;;0.40;;
31716;SDS011;18301;51.076;17.046;2023-08-06T03:04:34;0.30;;;0.30;;
31716;SDS011;18301;51.076;17.046;2023-08-06T03:09:35;0.80;;;0.30;;
31716;SDS011;18301;51.076;17.046;2023-08-06T03:14:37;0.40;;;0.40;;
31716;SDS011;18301;51.076;17.046;2023-08-06T03:19:38;0.50;;;0.40;;
31716;SDS011;18301;51.076;17.046;2023-08-06T03:24:40;0.40;;;0.40;;
31716;SDS011;18301;51.076;17.046;2023-08-06T03:29:41;0.30;;;0.30;;
31716;SDS011;18301;51.076;17.046;2023-08-06T03:34:43;0.30;;;0.30;;
31716;SDS011;18301;51.076;17.046;2023-08-06T03:39:45;0.40;;;0.40;;
31716;SDS011;18301;51.076;17.046;2023-08-06T03:44:46;0.30;;;0.30;;
31716;SDS011;18301;51.076;17.046;2023-08-06T03:49:48;0.38;;;0.38;;
31716;SDS011;18301;51.076;17.046;2023-08-06T03:54:50;0.50;;;0.30;;
31716;SDS011;18301;51.076;17.046;2023-08-06T03:59:52;0.52;;;0.32;;
31716;SDS011;18301;51.076;17.046;2023-08-06T04:04:55;0.80;;;0.30;;
31716;SDS011;18301;51.076;17.046;2023-08-06T04:09:58;0.22;;;0.20;;
31716;SDS011;18301;51.076;17.046;2023-08-06T04:15:00;0.73;;;0.30;;
31716;SDS011;18301;51.076;17.046;2023-08-06T04:20:02;0.20;;;0.20;;
31716;SDS011;18301;51.076;17.046;2023-08-06T04:25:04;0.77;;;0.50;;
31716;SDS011;18301;51.076;17.046;2023-08-06T04:30:06;1.98;;;0.38;;
31716;SDS011;18301;51.076;17.046;2023-08-06T04:35:10;0.28;;;0.28;;
31716;SDS011;18301;51.076;17.046;2023-08-06T04:40:12;1.88;;;0.30;;
31716;SDS011;18301;51.076;17.046;2023-08-06T04:45:14;0.35;;;0.20;;
31716;SDS011;18301;51.076;17.046;2023-08-06T04:50:16;0.85;;;0.40;;
31716;SDS011;18301;51.076;17.046;2023-08-06T04:55:17;0.30;;;0.30;;
31716;SDS011;18301;51.076;17.046;2023-08-06T05:00:19;1.10;;;0.30;;
31716;SDS011;18301;51.076;17.046;2023-08-06T05:05:20;0.50;;;0.30;;
31716;SDS011;18301;51.076;17.046;2023-08-06T05:10:24;0.28;;;0.25;;
31716;SDS011;18301;51.076;17.046;2023-08-06T05:15:26;0.30;;;0.30;;
31716;SDS011;18301;51.076;17.046;2023-08-06T05:20:27;0.30;;;0.30;;
31716;SDS011;18301;51.076;17.046;2023-08-06T05:25:29;0.30;;;0.30;;
31716;SDS011;18301;51.076;17.046;2023-08-06T05:30:31;0.85;;;0.25;;
31716;SDS011;18301;51.076;17.046;2023-08-06T05:35:32;0.40;;;0.30;;
31716;SDS011;18301;51.076;17.046;2023-08-06T05:40:34;0.45;;;0.30;;
31716;SDS011;18301;51.076;17.046;2023-08-06T05:45:36;1.02;;;0.30;;
31716;SDS011;18301;51.076;17.046;2023-08-06T05:50:37;0.30;;;0.30;;
31716;SDS011;18301;51.076;17.046;2023-08-06T05:55:39;0.77;;;0.30;;
31716;SDS011;18301;51.076;17.046;2023-08-06T06:00:41;0.43;;;0.30;;
31716;SDS011;18301;51.076;17.046;2023-08-06T06:05:42;0.30;;;0.30;;
31716;SDS011;18301;51.076;17.046;2023-08-06T06:10:44;0.30;;;0.30;;
31716;SDS011;18301;51.076;17.046;2023-08-06T06:15:48;0.20;;;0.20;;
31716;SDS011;18301;51.076;17.046;2023-08-06T06:20:50;0.22;;;0.22;;
31716;SDS011;18301;51.076;17.046;2023-08-06T06:25:51;0.22;;;0.20;;
31716;SDS011;18301;51.076;17.046;2023-08-06T06:30:53;0.28;;;0.28;;
31716;SDS011;18301;51.076;17.046;2023-08-06T06:35:54;0.28;;;0.22;;
31716;SDS011;18301;51.076;17.046;2023-08-06T06:40:56;0.40;;;0.40;;
31716;SDS011;18301;51.076;17.046;2023-08-06T06:46:01;0.30;;;0.30;;
31716;SDS011;18301;51.076;17.046;2023-08-06T06:51:02;0.25;;;0.22;;
31716;SDS011;18301;51.076;17.046;2023-08-06T06:56:04;0.50;;;0.30;;
31716;SDS011;18301;51.076;17.046;2023-08-06T07:01:06;0.65;;;0.50;;
31716;SDS011;18301;51.076;17.046;2023-08-06T07:06:08;0.32;;;0.30;;
31716;SDS011;18301;51.076;17.046;2023-08-06T07:11:10;0.30;;;0.30;;
31716;SDS011;18301;51.076;17.046;2023-08-06T07:16:11;0.40;;;0.40;;
31716;SDS011;18301;51.076;17.046;2023-08-06T07:21:13;0.70;;;0.38;;
31716;SDS011;18301;51.076;17.046;2023-08-06T07:26:15;1.05;;;0.30;;
31716;SDS011;18301;51.076;17.046;2023-08-06T07:31:17;3.65;;;0.60;;
31716;SDS011;18301;51.076;17.046;2023-08-06T07:36:20;0.50;;;0.50;;
31716;SDS011;18301;51.076;17.046;2023-08-06T07:41:22;0.63;;;0.47;;
31716;SDS011;18301;51.076;17.046;2023-08-06T07:46:24;0.50;;;0.50;;
31716;SDS011;18301;51.076;17.046;2023-08-06T07:51:25;0.60;;;0.57;;
31716;SDS011;18301;51.076;17.046;2023-08-06T07:56:27;0.50;;;0.50;;
31716;SDS011;18301;51.076;17.046;2023-08-06T08:01:28;0.50;;;0.50;;
31716;SDS011;18301;51.076;17.046;2023-08-06T08:06:30;1.00;;;0.60;;
31716;SDS011;18301;51.076;17.046;2023-08-06T08:11:31;0.60;;;0.60;;
31716;SDS011;18301;51.076;17.046;2023-08-06T08:16:33;0.68;;;0.68;;
31716;SDS011;18301;51.076;17.046;2023-08-06T08:21:35;0.70;;;0.70;;
31716;SDS011;18301;51.076;17.046;2023-08-06T08:26:36;0.80;;;0.80;;
31716;SDS011;18301;51.076;17.046;2023-08-06T08:31:38;1.05;;;0.90;;
31716;SDS011;18301;51.076;17.046;2023-08-06T08:36:40;0.55;;;0.55;;
31716;SDS011;18301;51.076;17.046;2023-08-06T08:41:42;1.13;;;0.75;;
31716;SDS011;18301;51.076;17.046;2023-08-06T08:46:43;0.50;;;0.50;;
31716;SDS011;18301;51.076;17.046;2023-08-06T08:51:46;0.50;;;0.50;;
31716;SDS011;18301;51.076;17.046;2023-08-06T08:56:49;1.23;;;0.50;;
31716;SDS011;18301;51.076;17.046;2023-08-06T09:01:50;0.88;;;0.60;;
31716;SDS011;18301;51.076;17.046;2023-08-06T09:06:53;0.60;;;0.60;;
31716;SDS011;18301;51.076;17.046;2023-08-06T09:12:00;0.60;;;0.40;;
31716;SDS011;18301;51.076;17.046;2023-08-06T09:17:05;0.50;;;0.40;;
31716;SDS011;18301;51.076;17.046;2023-08-06T09:22:07;0.60;;;0.60;;
31716;SDS011;18301;51.076;17.046;2023-08-06T09:27:14;0.90;;;0.60;;
31716;SDS011;18301;51.076;17.046;2023-08-06T09:32:16;1.25;;;0.70;;
31716;SDS011;18301;51.076;17.046;2023-08-06T09:37:17;0.50;;;0.50;;
31716;SDS011;18301;51.076;17.046;2023-08-06T09:42:19;1.33;;;0.68;;
31716;SDS011;18301;51.076;17.046;2023-08-06T09:47:20;0.80;;;0.50;;
31716;SDS011;18301;51.076;17.046;2023-08-06T09:52:25;0.50;;;0.50;;
31716;SDS011;18301;51.076;17.046;2023-08-06T09:57:26;0.70;;;0.60;;
31716;SDS011;18301;51.076;17.046;2023-08-06T10:02:28;0.60;;;0.50;;
31716;SDS011;18301;51.076;17.046;2023-08-06T10:07:30;0.82;;;0.60;;
31716;SDS011;18301;51.076;17.046;2023-08-06T10:12:33;1.10;;;0.60;;
31716;SDS011;18301;51.076;17.046;2023-08-06T10:17:37;0.50;;;0.50;;
31716;SDS011;18301;51.076;17.046;2023-08-06T10:23:01;1.25;;;0.70;;
31716;SDS011;18301;51.076;17.046;2023-08-06T10:28:07;1.25;;;0.88;;
31716;SDS011;18301;51.076;17.046;2023-08-06T10:33:10;0.90;;;0.77;;
31716;SDS011;18301;51.076;17.046;2023-08-06T10:38:13;0.90;;;0.70;;
31716;SDS011;18301;51.076;17.046;2023-08-06T10:43:31;0.77;;;0.65;;
31716;SDS011;18301;51.076;17.046;2023-08-06T10:48:34;1.10;;;0.70;;
31716;SDS011;18301;51.076;17.046;2023-08-06T10:53:46;0.70;;;0.70;;
31716;SDS011;18301;51.076;17.046;2023-08-06T10:58:51;1.60;;;0.80;;
31716;SDS011;18301;51.076;17.046;2023-08-06T11:03:54;0.60;;;0.55;;
31716;SDS011;18301;51.076;17.046;2023-08-06T11:08:56;0.95;;;0.80;;
31716;SDS011;18301;51.076;17.046;2023-08-06T11:13:57;0.60;;;0.60;;
31716;SDS011;18301;51.076;17.046;2023-08-06T11:18:59;0.65;;;0.65;;
31716;SDS011;18301;51.076;17.046;2023-08-06T11:24:01;0.65;;;0.65;;
31716;SDS011;18301;51.076;17.046;2023-08-06T11:29:03;0.68;;;0.68;;
31716;SDS011;18301;51.076;17.046;2023-08-06T11:34:04;1.17;;;0.60;;
31716;SDS011;18301;51.076;17.046;2023-08-06T11:39:06;1.27;;;0.70;;
31716;SDS011;18301;51.076;17.046;2023-08-06T11:44:10;1.48;;;0.70;;
31716;SDS011;18301;51.076;17.046;2023-08-06T11:49:15;0.50;;;0.50;;
31716;SDS011;18301;51.076;17.046;2023-08-06T11:54:16;0.88;;;0.60;;
31716;SDS011;18301;51.076;17.046;2023-08-06T11:59:31;0.98;;;0.60;;
31716;SDS011;18301;51.076;17.046;2023-08-06T12:10:00;0.80;;;0.80;;
31716;SDS011;18301;51.076;17.046;2023-08-06T12:15:02;0.80;;;0.80;;
31716;SDS011;18301;51.076;17.046;2023-08-06T12:20:05;1.60;;;0.70;;
31716;SDS011;18301;51.076;17.046;2023-08-06T12:25:08;1.00;;;0.77;;
31716;SDS011;18301;51.076;17.046;2023-08-06T12:30:13;0.68;;;0.68;;
31716;SDS011;18301;51.076;17.046;2023-08-06T12:35:14;0.73;;;0.70;;
31716;SDS011;18301;51.076;17.046;2023-08-06T12:40:16;0.80;;;0.80;;
31716;SDS011;18301;51.076;17.046;2023-08-06T12:45:36;0.77;;;0.77;;
31716;SDS011;18301;51.076;17.046;2023-08-06T12:50:37;1.35;;;0.80;;
31716;SDS011;18301;51.076;17.046;2023-08-06T12:55:39;1.23;;;1.00;;
31716;SDS011;18301;51.076;17.046;2023-08-06T13:00:41;1.40;;;1.10;;
31716;SDS011;18301;51.076;17.046;2023-08-06T13:05:43;0.80;;;0.80;;
31716;SDS011;18301;51.076;17.046;2023-08-06T13:10:46;3.03;;;1.00;;
31716;SDS011;18301;51.076;17.046;2023-08-06T13:15:47;0.93;;;0.90;;
31716;SDS011;18301;51.076;17.046;2023-08-06T13:20:49;1.40;;;1.30;;
31716;SDS011;18301;51.076;17.046;2023-08-06T13:25:55;1.33;;;1.10;;
31716;SDS011;18301;51.076;17.046;2023-08-06T13:30:57;1.33;;;0.95;;
31716;SDS011;18301;51.076;17.046;2023-08-06T13:35:58;1.30;;;0.93;;
31716;SDS011;18301;51.076;17.046;2023-08-06T13:41:00;1.20;;;1.10;;
31716;SDS011;18301;51.076;17.046;2023-08-06T13:46:01;1.92;;;1.00;;
31716;SDS011;18301;51.076;17.046;2023-08-06T13:51:03;2.50;;;1.00;;
31716;SDS011;18301;51.076;17.046;2023-08-06T13:56:05;1.25;;;0.90;;
31716;SDS011;18301;51.076;17.046;2023-08-06T14:01:09;1.23;;;0.85;;
31716;SDS011;18301;51.076;17.046;2023-08-06T14:06:14;1.13;;;1.00;;
31716;SDS011;18301;51.076;17.046;2023-08-06T14:11:16;2.25;;;0.90;;
31716;SDS011;18301;51.076;17.046;2023-08-06T14:16:17;1.13;;;0.95;;
31716;SDS011;18301;51.076;17.046;2023-08-06T14:21:19;0.90;;;0.90;;
31716;SDS011;18301;51.076;17.046;2023-08-06T14:26:20;1.35;;;0.90;;
31716;SDS011;18301;51.076;17.046;2023-08-06T14:31:22;1.77;;;1.13;;
31716;SDS011;18301;51.076;17.046;2023-08-06T14:36:24;1.63;;;1.10;;
31716;SDS011;18301;51.076;17.046;2023-08-06T14:41:25;1.73;;;1.20;;
31716;SDS011;18301;51.076;17.046;2023-08-06T14:46:27;1.30;;;1.20;;
31716;SDS011;18301;51.076;17.046;2023-08-06T14:51:28;1.90;;;1.40;;
31716;SDS011;18301;51.076;17.046;2023-08-06T14:56:30;2.30;;;1.70;;
31716;SDS011;18301;51.076;17.046;2023-08-06T15:01:31;1.90;;;1.17;;
31716;SDS011;18301;51.076;17.046;2023-08-06T15:06:33;3.00;;;1.25;;
31716;SDS011;18301;51.076;17.046;2023-08-06T15:11:34;1.33;;;1.05;;
31716;SDS011;18301;51.076;17.046;2023-08-06T15:16:36;2.08;;;1.60;;
31716;SDS011;18301;51.076;17.046;2023-08-06T15:21:38;2.72;;;1.30;;
31716;SDS011;18301;51.076;17.046;2023-08-06T15:26:39;1.92;;;1.52;;
31716;SDS011;18301;51.076;17.046;2023-08-06T15:31:41;1.48;;;1.38;;
31716;SDS011;18301;51.076;17.046;2023-08-06T15:36:42;1.98;;;1.35;;
31716;SDS011;18301;51.076;17.046;2023-08-06T15:41:44;1.55;;;1.45;;
31716;SDS011;18301;51.076;17.046;2023-08-06T15:46:45;1.70;;;1.45;;
31716;SDS011;18301;51.076;17.046;2023-08-06T15:51:47;3.10;;;1.80;;
31716;SDS011;18301;51.076;17.046;2023-08-06T15:56:48;2.30;;;1.70;;
31716;SDS011;18301;51.076;17.046;2023-08-06T16:01:50;2.33;;;1.70;;
31716;SDS011;18301;51.076;17.046;2023-08-06T16:06:51;2.42;;;1.92;;
31716;SDS011;18301;51.076;17.046;2023-08-06T16:11:53;2.03;;;1.83;;
31716;SDS011;18301;51.076;17.046;2023-08-06T16:16:55;5.25;;;2.53;;
31716;SDS011;18301;51.076;17.046;2023-08-06T16:21:57;3.05;;;2.13;;
31716;SDS011;18301;51.076;17.046;2023-08-06T16:26:59;3.75;;;1.80;;
31716;SDS011;18301;51.076;17.046;2023-08-06T16:32:00;2.08;;;1.73;;
31716;SDS011;18301;51.076;17.046;2023-08-06T16:37:02;2.28;;;1.90;;
31716;SDS011;18301;51.076;17.046;2023-08-06T16:42:04;3.90;;;1.60;;
31716;SDS011;18301;51.076;17.046;2023-08-06T16:47:07;1.83;;;1.50;;
31716;SDS011;18301;51.076;17.046;2023-08-06T16:52:10;1.70;;;1.60;;
31716;SDS011;18301;51.076;17.046;2023-08-06T16:57:12;4.95;;;1.92;;
31716;SDS011;18301;51.076;17.046;2023-08-06T17:02:13;1.70;;;1.40;;
31716;SDS011;18301;51.076;17.046;2023-08-06T17:07:15;2.50;;;1.90;;
31716;SDS011;18301;51.076;17.046;2023-08-06T17:12:16;2.70;;;1.63;;
31716;SDS011;18301;51.076;17.046;2023-08-06T17:17:21;1.73;;;1.42;;
31716;SDS011;18301;51.076;17.046;2023-08-06T17:22:22;3.53;;;1.83;;
31716;SDS011;18301;51.076;17.046;2023-08-06T17:27:24;3.47;;;1.85;;
31716;SDS011;18301;51.076;17.046;2023-08-06T17:32:25;2.15;;;1.60;;
31716;SDS011;18301;51.076;17.046;2023-08-06T17:37:27;2.28;;;2.00;;
31716;SDS011;18301;51.076;17.046;2023-08-06T17:42:28;2.53;;;2.00;;
31716;SDS011;18301;51.076;17.046;2023-08-06T17:47:30;2.97;;;2.15;;
31716;SDS011;18301;51.076;17.046;2023-08-06T17:52:38;3.47;;;2.17;;
31716;SDS011;18301;51.076;17.046;2023-08-06T17:57:39;3.13;;;1.95;;
31716;SDS011;18301;51.076;17.046;2023-08-06T18:02:41;2.50;;;2.17;;
31716;SDS011;18301;51.076;17.046;2023-08-06T18:07:43;3.88;;;1.95;;
31716;SDS011;18301;51.076;17.046;2023-08-06T18:12:48;2.88;;;1.98;;
31716;SDS011;18301;51.076;17.046;2023-08-06T18:17:49;2.22;;;1.52;;
31716;SDS011;18301;51.076;17.046;2023-08-06T18:22:51;2.42;;;2.08;;
31716;SDS011;18301;51.076;17.046;2023-08-06T18:27:53;2.58;;;2.17;;
31716;SDS011;18301;51.076;17.046;2023-08-06T18:32:54;2.80;;;2.03;;
31716;SDS011;18301;51.076;17.046;2023-08-06T18:37:56;2.10;;;1.90;;
31716;SDS011;18301;51.076;17.046;2023-08-06T18:42:59;3.88;;;2.00;;
31716;SDS011;18301;51.076;17.046;2023-08-06T18:48:00;3.47;;;2.45;;
31716;SDS011;18301;51.076;17.046;2023-08-06T18:53:04;3.33;;;2.10;;
31716;SDS011;18301;51.076;17.046;2023-08-06T18:58:05;2.53;;;2.20;;
31716;SDS011;18301;51.076;17.046;2023-08-06T19:03:10;2.47;;;1.77;;
31716;SDS011;18301;51.076;17.046;2023-08-06T19:08:12;2.72;;;2.42;;
31716;SDS011;18301;51.076;17.046;2023-08-06T19:13:14;2.90;;;2.30;;
31716;SDS011;18301;51.076;17.046;2023-08-06T19:18:15;3.05;;;2.22;;
31716;SDS011;18301;51.076;17.046;2023-08-06T19:23:17;2.42;;;2.20;;
31716;SDS011;18301;51.076;17.046;2023-08-06T19:28:19;4.35;;;2.65;;
31716;SDS011;18301;51.076;17.046;2023-08-06T19:33:22;4.03;;;2.60;;
31716;SDS011;18301;51.076;17.046;2023-08-06T19:38:23;3.08;;;2.55;;
31716;SDS011;18301;51.076;17.046;2023-08-06T19:43:25;4.53;;;2.90;;
31716;SDS011;18301;51.076;17.046;2023-08-06T19:48:27;3.10;;;2.70;;
31716;SDS011;18301;51.076;17.046;2023-08-06T19:53:29;2.90;;;2.45;;
31716;SDS011;18301;51.076;17.046;2023-08-06T19:58:34;3.38;;;2.30;;
31716;SDS011;18301;51.076;17.046;2023-08-06T20:03:36;3.38;;;2.50;;
31716;SDS011;18301;51.076;17.046;2023-08-06T20:08:44;4.15;;;2.28;;
31716;SDS011;18301;51.076;17.046;2023-08-06T20:13:45;4.00;;;3.15;;
31716;SDS011;18301;51.076;17.046;2023-08-06T20:18:47;2.60;;;2.35;;
31716;SDS011;18301;51.076;17.046;2023-08-06T20:23:48;3.70;;;3.13;;
31716;SDS011;18301;51.076;17.046;2023-08-06T20:28:50;3.65;;;2.70;;
31716;SDS011;18301;51.076;17.046;2023-08-06T20:33:51;2.72;;;2.53;;
31716;SDS011;18301;51.076;17.046;2023-08-06T20:38:53;4.10;;;2.85;;
31716;SDS011;18301;51.076;17.046;2023-08-06T20:43:54;6.47;;;2.70;;
31716;SDS011;18301;51.076;17.046;2023-08-06T20:48:56;3.85;;;2.78;;
31716;SDS011;18301;51.076;17.046;2023-08-06T20:53:57;4.50;;;2.72;;
31716;SDS011;18301;51.076;17.046;2023-08-06T20:58:59;4.97;;;2.85;;
31716;SDS011;18301;51.076;17.046;2023-08-06T21:04:03;4.13;;;2.80;;
31716;SDS011;18301;51.076;17.046;2023-08-06T21:09:05;4.15;;;2.80;;
31716;SDS011;18301;51.076;17.046;2023-08-06T21:14:08;5.75;;;3.13;;
31716;SDS011;18301;51.076;17.046;2023-08-06T21:19:09;5.90;;;2.90;;
31716;SDS011;18301;51.076;17.046;2023-08-06T21:24:11;3.75;;;2.92;;
31716;SDS011;18301;51.076;17.046;2023-08-06T21:29:12;4.05;;;2.50;;
31716;SDS011;18301;51.076;17.046;2023-08-06T21:34:14;5.18;;;2.70;;
31716;SDS011;18301;51.076;17.046;2023-08-06T21:39:16;4.60;;;2.78;;
31716;SDS011;18301;51.076;17.046;2023-08-06T21:44:18;5.38;;;2.83;;
31716;SDS011;18301;51.076;17.046;2023-08-06T21:49:19;3.13;;;2.72;;
31716;SDS011;18301;51.076;17.046;2023-08-06T21:54:21;4.07;;;2.47;;
31716;SDS011;18301;51.076;17.046;2023-08-06T21:59:22;4.00;;;2.75;;
31716;SDS011;18301;51.076;17.046;2023-08-06T22:04:24;4.47;;;2.50;;
31716;SDS011;18301;51.076;17.046;2023-08-06T22:09:25;3.85;;;2.53;;
31716;SDS011;18301;51.076;17.046;2023-08-06T22:14:27;2.50;;;2.30;;
31716;SDS011;18301;51.076;17.046;2023-08-06T22:19:28;3.70;;;2.20;;
31716;SDS011;18301;51.076;17.046;2023-08-06T22:24:30;4.40;;;2.33;;
31716;SDS011;18301;51.076;17.046;2023-08-06T22:29:31;3.25;;;2.10;;
31716;SDS011;18301;51.076;17.046;2023-08-06T22:34:33;3.70;;;2.65;;
31716;SDS011;18301;51.076;17.046;2023-08-06T22:39:35;2.65;;;2.20;;
31716;SDS011;18301;51.076;17.046;2023-08-06T22:44:36;5.65;;;2.20;;
31716;SDS011;18301;51.076;17.046;2023-08-06T22:49:38;2.25;;;2.00;;
31716;SDS011;18301;51.076;17.046;2023-08-06T22:54:39;3.78;;;2.30;;
31716;SDS011;18301;51.076;17.046;2023-08-06T22:59:46;2.90;;;2.45;;
31716;SDS011;18301;51.076;17.046;2023-08-06T23:04:48;3.55;;;2.50;;
31716;SDS011;18301;51.076;17.046;2023-08-06T23:09:49;4.38;;;2.25;;
31716;SDS011;18301;51.076;17.046;2023-08-06T23:14:51;5.15;;;2.63;;
31716;SDS011;18301;51.076;17.046;2023-08-06T23:19:52;3.22;;;2.00;;
31716;SDS011;18301;51.076;17.046;2023-08-06T23:24:54;3.13;;;2.47;;
31716;SDS011;18301;51.076;17.046;2023-08-06T23:29:55;4.45;;;2.80;;
31716;SDS011;18301;51.076;17.046;2023-08-06T23:34:57;3.78;;;2.20;;
31716;SDS011;18301;51.076;17.046;2023-08-06T23:39:59;3.28;;;2.20;;
31716;SDS011;18301;51.076;17.046;2023-08-06T23:45:00;3.65;;;2.40;;
31716;SDS011;18301;51.076;17.046;2023-08-06T23:50:02;4.57;;;2.30;;
31716;SDS011;18301;51.076;17.046;2023-08-06T23:55:03;3.20;;;2.17;;
